sensor_id;sensor_type;location;lat;lon;timestamp;temperature;humidity
19966;DHT22;10144;50.874;4.762;2024-01-06T00:01:11;6.80;99.90
19966;DHT22;10144;50.874;4.762;2024-01-06T00:03:43;6.90;99.90
19966;DHT22;10144;50.874;4.762;2024-01-06T00:06:13;6.80;99.90
19966;DHT22;10144;50.874;4.762;2024-01-06T00:08:44;6.80;99.90
19966;DHT22;10144;50.874;4.762;2024-01-06T00:11:13;6.70;99.90
19966;DHT22;10144;50.874;4.762;2024-01-06T00:13:44;6.70;99.90
19966;DHT22;10144;50.874;4.762;2024-01-06T00:16:11;6.80;99.90
19966;DHT22;10144;50.874;4.762;2024-01-06T00:18:40;6.90;99.90
19966;DHT22;10144;50.874;4.762;2024-01-06T00:21:09;6.80;99.90
19966;DHT22;10144;50.874;4.762;2024-01-06T00:23:39;6.90;99.90
19966;DHT22;10144;50.874;4.762;2024-01-06T00:26:11;6.90;99.90
19966;DHT22;10144;50.874;4.762;2024-01-06T00:28:43;6.80;99.90
19966;DHT22;10144;50.874;4.762;2024-01-06T00:31:11;6.80;99.90
19966;DHT22;10144;50.874;4.762;2024-01-06T00:33:40;6.90;99.90
19966;DHT22;10144;50.874;4.762;2024-01-06T00:36:07;6.90;99.90
19966;DHT22;10144;50.874;4.762;2024-01-06T00:38:33;6.80;99.90
19966;DHT22;10144;50.874;4.762;2024-01-06T00:41:01;6.80;99.90
19966;DHT22;10144;50.874;4.762;2024-01-06T00:43:29;6.80;99.90
19966;DHT22;10144;50.874;4.762;2024-01-06T00:45:57;6.80;99.90
19966;DHT22;10144;50.874;4.762;2024-01-06T00:48:23;6.80;99.90
19966;DHT22;10144;50.874;4.762;2024-01-06T00:50:51;6.90;99.90
19966;DHT22;10144;50.874;4.762;2024-01-06T00:53:21;7.00;99.90
19966;DHT22;10144;50.874;4.762;2024-01-06T00:55:47;6.90;99.90
19966;DHT22;10144;50.874;4.762;2024-01-06T00:58:13;7.00;99.90
19966;DHT22;10144;50.874;4.762;2024-01-06T01:00:42;7.00;99.90
19966;DHT22;10144;50.874;4.762;2024-01-06T01:03:11;7.00;99.90
19966;DHT22;10144;50.874;4.762;2024-01-06T01:05:42;7.00;99.90
19966;DHT22;10144;50.874;4.762;2024-01-06T01:08:09;7.00;99.90
19966;DHT22;10144;50.874;4.762;2024-01-06T01:10:38;7.10;99.90
19966;DHT22;10144;50.874;4.762;2024-01-06T01:13:07;7.10;99.90
19966;DHT22;10144;50.874;4.762;2024-01-06T01:15:38;7.00;99.90
19966;DHT22;10144;50.874;4.762;2024-01-06T01:18:17;7.00;99.90
19966;DHT22;10144;50.874;4.762;2024-01-06T01:20:46;7.10;99.90
19966;DHT22;10144;50.874;4.762;2024-01-06T01:23:15;6.90;99.90
19966;DHT22;10144;50.874;4.762;2024-01-06T01:25:43;6.90;99.90
19966;DHT22;10144;50.874;4.762;2024-01-06T01:28:13;7.00;99.90
19966;DHT22;10144;50.874;4.762;2024-01-06T01:30:42;6.90;99.90
19966;DHT22;10144;50.874;4.762;2024-01-06T01:33:10;6.90;99.90
19966;DHT22;10144;50.874;4.762;2024-01-06T01:35:39;6.90;99.90
19966;DHT22;10144;50.874;4.762;2024-01-06T01:38:07;6.90;99.90
19966;DHT22;10144;50.874;4.762;2024-01-06T01:40:33;6.90;99.90
19966;DHT22;10144;50.874;4.762;2024-01-06T01:43:01;7.00;99.90
19966;DHT22;10144;50.874;4.762;2024-01-06T01:45:27;7.00;99.90
19966;DHT22;10144;50.874;4.762;2024-01-06T01:47:53;7.00;99.90
19966;DHT22;10144;50.874;4.762;2024-01-06T01:50:22;7.10;99.90
19966;DHT22;10144;50.874;4.762;2024-01-06T01:52:54;7.20;99.90
19966;DHT22;10144;50.874;4.762;2024-01-06T01:55:21;7.10;99.90
19966;DHT22;10144;50.874;4.762;2024-01-06T01:57:51;7.20;99.90
19966;DHT22;10144;50.874;4.762;2024-01-06T02:00:33;7.20;99.90
19966;DHT22;10144;50.874;4.762;2024-01-06T02:03:02;7.10;99.90
19966;DHT22;10144;50.874;4.762;2024-01-06T02:05:28;7.10;99.90
19966;DHT22;10144;50.874;4.762;2024-01-06T02:07:57;7.00;99.90
19966;DHT22;10144;50.874;4.762;2024-01-06T02:10:26;6.90;99.90
19966;DHT22;10144;50.874;4.762;2024-01-06T02:13:10;6.90;99.90
19966;DHT22;10144;50.874;4.762;2024-01-06T02:15:39;6.90;99.90
19966;DHT22;10144;50.874;4.762;2024-01-06T02:18:11;7.00;99.90
19966;DHT22;10144;50.874;4.762;2024-01-06T02:20:43;7.00;99.90
19966;DHT22;10144;50.874;4.762;2024-01-06T02:23:13;7.00;99.90
19966;DHT22;10144;50.874;4.762;2024-01-06T02:25:42;7.00;99.90
19966;DHT22;10144;50.874;4.762;2024-01-06T02:28:13;6.90;99.90
19966;DHT22;10144;50.874;4.762;2024-01-06T02:30:43;6.80;99.90
19966;DHT22;10144;50.874;4.762;2024-01-06T02:33:37;6.90;99.90
19966;DHT22;10144;50.874;4.762;2024-01-06T02:36:06;6.90;99.90
19966;DHT22;10144;50.874;4.762;2024-01-06T02:38:35;6.80;99.90
19966;DHT22;10144;50.874;4.762;2024-01-06T02:41:04;7.00;99.90
19966;DHT22;10144;50.874;4.762;2024-01-06T02:43:33;6.90;99.90
19966;DHT22;10144;50.874;4.762;2024-01-06T02:46:04;6.80;99.90
19966;DHT22;10144;50.874;4.762;2024-01-06T02:48:33;6.80;99.90
19966;DHT22;10144;50.874;4.762;2024-01-06T02:51:01;6.80;99.90
19966;DHT22;10144;50.874;4.762;2024-01-06T02:53:29;6.80;99.90
19966;DHT22;10144;50.874;4.762;2024-01-06T02:56:03;6.80;99.90
19966;DHT22;10144;50.874;4.762;2024-01-06T02:58:32;6.80;99.90
19966;DHT22;10144;50.874;4.762;2024-01-06T03:01:00;6.70;99.90
19966;DHT22;10144;50.874;4.762;2024-01-06T03:03:29;6.70;99.90
19966;DHT22;10144;50.874;4.762;2024-01-06T03:05:57;6.80;99.90
19966;DHT22;10144;50.874;4.762;2024-01-06T03:08:26;6.80;99.90
19966;DHT22;10144;50.874;4.762;2024-01-06T03:10:55;6.80;99.90
19966;DHT22;10144;50.874;4.762;2024-01-06T03:13:24;6.70;99.90
19966;DHT22;10144;50.874;4.762;2024-01-06T03:15:51;6.70;99.90
19966;DHT22;10144;50.874;4.762;2024-01-06T03:18:20;6.70;99.90
19966;DHT22;10144;50.874;4.762;2024-01-06T03:20:48;6.80;99.90
19966;DHT22;10144;50.874;4.762;2024-01-06T03:23:17;6.80;99.90
19966;DHT22;10144;50.874;4.762;2024-01-06T03:25:46;6.80;99.90
19966;DHT22;10144;50.874;4.762;2024-01-06T03:28:15;6.80;99.90
19966;DHT22;10144;50.874;4.762;2024-01-06T03:30:40;6.90;99.90
19966;DHT22;10144;50.874;4.762;2024-01-06T03:33:07;6.80;99.90
19966;DHT22;10144;50.874;4.762;2024-01-06T03:35:33;6.70;99.90
19966;DHT22;10144;50.874;4.762;2024-01-06T03:38:02;6.70;99.90
19966;DHT22;10144;50.874;4.762;2024-01-06T03:40:34;6.80;99.90
19966;DHT22;10144;50.874;4.762;2024-01-06T03:43:03;6.80;99.90
19966;DHT22;10144;50.874;4.762;2024-01-06T03:45:31;6.70;99.90
19966;DHT22;10144;50.874;4.762;2024-01-06T03:48:00;6.70;99.90
19966;DHT22;10144;50.874;4.762;2024-01-06T03:50:29;6.60;99.90
19966;DHT22;10144;50.874;4.762;2024-01-06T03:52:56;6.60;99.90
19966;DHT22;10144;50.874;4.762;2024-01-06T03:55:22;6.70;99.90
19966;DHT22;10144;50.874;4.762;2024-01-06T03:57:47;6.70;99.90
19966;DHT22;10144;50.874;4.762;2024-01-06T04:00:13;6.80;99.90
19966;DHT22;10144;50.874;4.762;2024-01-06T04:02:42;6.80;99.90
19966;DHT22;10144;50.874;4.762;2024-01-06T04:05:09;6.80;99.90
19966;DHT22;10144;50.874;4.762;2024-01-06T04:07:38;6.80;99.90
19966;DHT22;10144;50.874;4.762;2024-01-06T04:10:07;6.90;99.90
19966;DHT22;10144;50.874;4.762;2024-01-06T04:12:33;6.90;99.90
19966;DHT22;10144;50.874;4.762;2024-01-06T04:14:59;6.90;99.90
19966;DHT22;10144;50.874;4.762;2024-01-06T04:17:25;6.80;99.90
19966;DHT22;10144;50.874;4.762;2024-01-06T04:20:05;6.70;99.90
19966;DHT22;10144;50.874;4.762;2024-01-06T04:22:33;6.70;99.90
19966;DHT22;10144;50.874;4.762;2024-01-06T04:24:59;6.70;99.90
19966;DHT22;10144;50.874;4.762;2024-01-06T04:27:28;6.70;99.90
19966;DHT22;10144;50.874;4.762;2024-01-06T04:29:57;6.50;99.90
19966;DHT22;10144;50.874;4.762;2024-01-06T04:32:29;6.50;99.90
19966;DHT22;10144;50.874;4.762;2024-01-06T04:34:55;6.40;99.90
19966;DHT22;10144;50.874;4.762;2024-01-06T04:37:25;6.30;99.90
19966;DHT22;10144;50.874;4.762;2024-01-06T04:39:54;6.30;99.90
19966;DHT22;10144;50.874;4.762;2024-01-06T04:42:32;6.20;99.90
19966;DHT22;10144;50.874;4.762;2024-01-06T04:45:01;6.20;99.90
19966;DHT22;10144;50.874;4.762;2024-01-06T04:47:28;6.20;99.90
19966;DHT22;10144;50.874;4.762;2024-01-06T04:50:13;6.10;99.90
19966;DHT22;10144;50.874;4.762;2024-01-06T04:52:38;6.10;99.90
19966;DHT22;10144;50.874;4.762;2024-01-06T04:55:06;6.00;99.90
19966;DHT22;10144;50.874;4.762;2024-01-06T04:57:32;6.00;99.90
19966;DHT22;10144;50.874;4.762;2024-01-06T05:00:01;5.90;99.90
19966;DHT22;10144;50.874;4.762;2024-01-06T05:02:27;5.90;99.90
19966;DHT22;10144;50.874;4.762;2024-01-06T05:04:55;5.90;99.90
19966;DHT22;10144;50.874;4.762;2024-01-06T05:07:21;6.00;99.90
19966;DHT22;10144;50.874;4.762;2024-01-06T05:09:50;5.90;99.90
19966;DHT22;10144;50.874;4.762;2024-01-06T05:12:18;5.90;99.90
19966;DHT22;10144;50.874;4.762;2024-01-06T05:14:43;5.90;99.90
19966;DHT22;10144;50.874;4.762;2024-01-06T05:17:09;5.90;99.90
19966;DHT22;10144;50.874;4.762;2024-01-06T05:19:36;5.80;99.90
19966;DHT22;10144;50.874;4.762;2024-01-06T05:22:01;5.90;99.90
19966;DHT22;10144;50.874;4.762;2024-01-06T05:24:31;5.90;99.90
19966;DHT22;10144;50.874;4.762;2024-01-06T05:27:00;5.80;99.90
19966;DHT22;10144;50.874;4.762;2024-01-06T05:29:25;5.80;99.90
19966;DHT22;10144;50.874;4.762;2024-01-06T05:31:53;5.90;99.90
19966;DHT22;10144;50.874;4.762;2024-01-06T05:34:22;5.90;99.90
19966;DHT22;10144;50.874;4.762;2024-01-06T05:36:49;5.80;99.90
19966;DHT22;10144;50.874;4.762;2024-01-06T05:39:18;5.90;99.90
19966;DHT22;10144;50.874;4.762;2024-01-06T05:41:47;5.90;99.90
19966;DHT22;10144;50.874;4.762;2024-01-06T05:44:13;5.90;99.90
19966;DHT22;10144;50.874;4.762;2024-01-06T05:46:38;5.80;99.90
19966;DHT22;10144;50.874;4.762;2024-01-06T05:49:05;5.80;99.90
19966;DHT22;10144;50.874;4.762;2024-01-06T05:51:37;5.80;99.90
19966;DHT22;10144;50.874;4.762;2024-01-06T05:54:06;5.70;99.90
19966;DHT22;10144;50.874;4.762;2024-01-06T05:56:31;5.80;99.90
19966;DHT22;10144;50.874;4.762;2024-01-06T05:58:59;5.90;99.90
19966;DHT22;10144;50.874;4.762;2024-01-06T06:01:28;5.90;99.90
19966;DHT22;10144;50.874;4.762;2024-01-06T06:04:13;5.90;99.90
19966;DHT22;10144;50.874;4.762;2024-01-06T06:06:41;5.80;99.90
19966;DHT22;10144;50.874;4.762;2024-01-06T06:09:09;5.70;99.90
19966;DHT22;10144;50.874;4.762;2024-01-06T06:11:36;5.60;99.90
19966;DHT22;10144;50.874;4.762;2024-01-06T06:14:04;5.70;99.90
19966;DHT22;10144;50.874;4.762;2024-01-06T06:16:31;5.70;99.90
19966;DHT22;10144;50.874;4.762;2024-01-06T06:19:03;5.70;99.90
19966;DHT22;10144;50.874;4.762;2024-01-06T06:21:32;5.80;99.90
19966;DHT22;10144;50.874;4.762;2024-01-06T06:23:58;5.80;99.90
19966;DHT22;10144;50.874;4.762;2024-01-06T06:26:30;5.70;99.90
19966;DHT22;10144;50.874;4.762;2024-01-06T06:28:59;5.60;99.90
19966;DHT22;10144;50.874;4.762;2024-01-06T06:31:33;5.60;99.90
19966;DHT22;10144;50.874;4.762;2024-01-06T06:34:01;5.50;99.90
19966;DHT22;10144;50.874;4.762;2024-01-06T06:36:33;5.50;99.90
19966;DHT22;10144;50.874;4.762;2024-01-06T06:39:02;5.40;99.90
19966;DHT22;10144;50.874;4.762;2024-01-06T06:41:32;5.40;99.90
19966;DHT22;10144;50.874;4.762;2024-01-06T06:44:00;5.20;99.90
19966;DHT22;10144;50.874;4.762;2024-01-06T06:46:26;5.10;99.90
19966;DHT22;10144;50.874;4.762;2024-01-06T06:48:57;5.00;99.90
19966;DHT22;10144;50.874;4.762;2024-01-06T06:51:26;4.90;99.90
19966;DHT22;10144;50.874;4.762;2024-01-06T06:53:52;4.90;99.90
19966;DHT22;10144;50.874;4.762;2024-01-06T06:56:21;4.90;99.90
19966;DHT22;10144;50.874;4.762;2024-01-06T06:58:49;4.90;99.90
19966;DHT22;10144;50.874;4.762;2024-01-06T07:01:18;4.90;99.90
19966;DHT22;10144;50.874;4.762;2024-01-06T07:03:47;5.00;99.90
19966;DHT22;10144;50.874;4.762;2024-01-06T07:06:13;5.00;99.90
19966;DHT22;10144;50.874;4.762;2024-01-06T07:08:40;4.90;99.90
19966;DHT22;10144;50.874;4.762;2024-01-06T07:11:10;5.10;99.90
19966;DHT22;10144;50.874;4.762;2024-01-06T07:13:39;5.00;99.90
19966;DHT22;10144;50.874;4.762;2024-01-06T07:16:08;5.00;99.90
19966;DHT22;10144;50.874;4.762;2024-01-06T07:18:40;5.10;99.90
19966;DHT22;10144;50.874;4.762;2024-01-06T07:21:11;5.10;99.90
19966;DHT22;10144;50.874;4.762;2024-01-06T07:23:40;5.10;99.90
19966;DHT22;10144;50.874;4.762;2024-01-06T07:26:09;5.00;99.90
19966;DHT22;10144;50.874;4.762;2024-01-06T07:28:35;5.00;99.90
19966;DHT22;10144;50.874;4.762;2024-01-06T07:31:04;5.10;99.90
19966;DHT22;10144;50.874;4.762;2024-01-06T07:33:33;5.20;99.90
19966;DHT22;10144;50.874;4.762;2024-01-06T07:36:02;5.10;99.90
19966;DHT22;10144;50.874;4.762;2024-01-06T07:38:31;5.00;99.90
19966;DHT22;10144;50.874;4.762;2024-01-06T07:41:02;5.00;99.90
19966;DHT22;10144;50.874;4.762;2024-01-06T07:43:33;5.10;99.90
19966;DHT22;10144;50.874;4.762;2024-01-06T07:46:04;5.10;99.90
19966;DHT22;10144;50.874;4.762;2024-01-06T07:48:34;5.10;99.90
19966;DHT22;10144;50.874;4.762;2024-01-06T07:51:01;5.00;99.90
19966;DHT22;10144;50.874;4.762;2024-01-06T07:53:33;5.00;99.90
19966;DHT22;10144;50.874;4.762;2024-01-06T07:55:59;5.00;99.90
19966;DHT22;10144;50.874;4.762;2024-01-06T07:58:26;5.00;99.90
19966;DHT22;10144;50.874;4.762;2024-01-06T08:00:53;5.10;99.90
19966;DHT22;10144;50.874;4.762;2024-01-06T08:03:22;5.10;99.90
19966;DHT22;10144;50.874;4.762;2024-01-06T08:05:50;5.20;99.90
19966;DHT22;10144;50.874;4.762;2024-01-06T08:08:19;5.30;99.90
19966;DHT22;10144;50.874;4.762;2024-01-06T08:10:47;5.20;99.90
19966;DHT22;10144;50.874;4.762;2024-01-06T08:13:14;5.10;99.90
19966;DHT22;10144;50.874;4.762;2024-01-06T08:15:43;5.10;99.90
19966;DHT22;10144;50.874;4.762;2024-01-06T08:18:09;5.10;99.90
19966;DHT22;10144;50.874;4.762;2024-01-06T08:20:38;5.00;99.90
19966;DHT22;10144;50.874;4.762;2024-01-06T08:23:07;5.20;99.90
19966;DHT22;10144;50.874;4.762;2024-01-06T08:25:36;5.30;99.90
19966;DHT22;10144;50.874;4.762;2024-01-06T08:28:05;5.30;99.90
19966;DHT22;10144;50.874;4.762;2024-01-06T08:30:33;5.20;99.90
19966;DHT22;10144;50.874;4.762;2024-01-06T08:32:59;5.30;99.90
19966;DHT22;10144;50.874;4.762;2024-01-06T08:35:28;5.20;99.90
19966;DHT22;10144;50.874;4.762;2024-01-06T08:37:57;5.20;99.90
19966;DHT22;10144;50.874;4.762;2024-01-06T08:40:33;5.10;99.90
19966;DHT22;10144;50.874;4.762;2024-01-06T08:43:03;5.10;99.90
19966;DHT22;10144;50.874;4.762;2024-01-06T08:45:32;5.10;99.90
19966;DHT22;10144;50.874;4.762;2024-01-06T08:48:01;5.20;99.90
19966;DHT22;10144;50.874;4.762;2024-01-06T08:50:26;5.20;99.90
19966;DHT22;10144;50.874;4.762;2024-01-06T08:52:52;5.20;99.90
19966;DHT22;10144;50.874;4.762;2024-01-06T08:55:21;5.30;99.90
19966;DHT22;10144;50.874;4.762;2024-01-06T08:57:50;5.20;99.90
19966;DHT22;10144;50.874;4.762;2024-01-06T09:00:23;5.30;99.90
19966;DHT22;10144;50.874;4.762;2024-01-06T09:02:52;5.20;99.90
19966;DHT22;10144;50.874;4.762;2024-01-06T09:05:31;5.20;99.90
19966;DHT22;10144;50.874;4.762;2024-01-06T09:08:00;5.30;99.90
19966;DHT22;10144;50.874;4.762;2024-01-06T09:10:29;5.30;99.90
19966;DHT22;10144;50.874;4.762;2024-01-06T09:12:55;5.30;99.90
19966;DHT22;10144;50.874;4.762;2024-01-06T09:15:22;5.30;99.90
19966;DHT22;10144;50.874;4.762;2024-01-06T09:17:51;5.20;99.90
19966;DHT22;10144;50.874;4.762;2024-01-06T09:20:19;5.30;99.90
19966;DHT22;10144;50.874;4.762;2024-01-06T09:22:48;5.30;99.90
19966;DHT22;10144;50.874;4.762;2024-01-06T09:25:17;5.20;99.90
19966;DHT22;10144;50.874;4.762;2024-01-06T09:27:46;5.20;99.90
19966;DHT22;10144;50.874;4.762;2024-01-06T09:30:12;5.30;99.90
19966;DHT22;10144;50.874;4.762;2024-01-06T09:32:41;5.30;99.90
19966;DHT22;10144;50.874;4.762;2024-01-06T09:35:13;5.20;99.90
19966;DHT22;10144;50.874;4.762;2024-01-06T09:37:43;5.20;99.90
19966;DHT22;10144;50.874;4.762;2024-01-06T09:40:13;5.30;99.90
19966;DHT22;10144;50.874;4.762;2024-01-06T09:42:42;5.20;99.90
19966;DHT22;10144;50.874;4.762;2024-01-06T09:45:14;5.20;99.90
19966;DHT22;10144;50.874;4.762;2024-01-06T09:47:48;5.30;99.90
19966;DHT22;10144;50.874;4.762;2024-01-06T09:50:40;5.50;99.90
19966;DHT22;10144;50.874;4.762;2024-01-06T09:53:10;5.60;99.90
19966;DHT22;10144;50.874;4.762;2024-01-06T09:55:45;5.40;99.90
19966;DHT22;10144;50.874;4.762;2024-01-06T09:58:18;5.50;99.90
19966;DHT22;10144;50.874;4.762;2024-01-06T10:00:50;5.50;99.90
19966;DHT22;10144;50.874;4.762;2024-01-06T10:03:19;5.50;99.90
19966;DHT22;10144;50.874;4.762;2024-01-06T10:05:48;5.30;99.90
19966;DHT22;10144;50.874;4.762;2024-01-06T10:08:18;5.30;99.90
19966;DHT22;10144;50.874;4.762;2024-01-06T10:10:45;5.40;99.90
19966;DHT22;10144;50.874;4.762;2024-01-06T10:13:17;5.30;99.90
19966;DHT22;10144;50.874;4.762;2024-01-06T10:15:46;5.40;99.90
19966;DHT22;10144;50.874;4.762;2024-01-06T10:18:15;5.40;99.90
19966;DHT22;10144;50.874;4.762;2024-01-06T10:20:41;5.40;99.90
19966;DHT22;10144;50.874;4.762;2024-01-06T10:23:07;5.30;99.90
19966;DHT22;10144;50.874;4.762;2024-01-06T10:25:36;5.30;99.90
19966;DHT22;10144;50.874;4.762;2024-01-06T10:28:05;5.30;99.90
19966;DHT22;10144;50.874;4.762;2024-01-06T10:30:37;5.20;99.90
19966;DHT22;10144;50.874;4.762;2024-01-06T10:33:10;5.00;99.90
19966;DHT22;10144;50.874;4.762;2024-01-06T10:35:37;4.80;99.90
19966;DHT22;10144;50.874;4.762;2024-01-06T10:38:11;4.70;99.90
19966;DHT22;10144;50.874;4.762;2024-01-06T10:40:56;4.80;99.90
19966;DHT22;10144;50.874;4.762;2024-01-06T10:43:28;4.70;99.90
19966;DHT22;10144;50.874;4.762;2024-01-06T10:45:59;4.80;99.90
19966;DHT22;10144;50.874;4.762;2024-01-06T10:48:28;4.70;99.90
19966;DHT22;10144;50.874;4.762;2024-01-06T10:50:58;4.60;99.90
19966;DHT22;10144;50.874;4.762;2024-01-06T10:53:27;4.60;99.90
19966;DHT22;10144;50.874;4.762;2024-01-06T10:56:05;4.60;99.90
19966;DHT22;10144;50.874;4.762;2024-01-06T10:58:36;4.70;99.90
19966;DHT22;10144;50.874;4.762;2024-01-06T11:01:11;4.60;99.90
19966;DHT22;10144;50.874;4.762;2024-01-06T11:03:48;4.60;99.90
19966;DHT22;10144;50.874;4.762;2024-01-06T11:06:18;4.70;99.90
19966;DHT22;10144;50.874;4.762;2024-01-06T11:08:56;4.70;99.90
19966;DHT22;10144;50.874;4.762;2024-01-06T11:11:29;4.60;99.90
19966;DHT22;10144;50.874;4.762;2024-01-06T11:14:35;4.60;99.90
19966;DHT22;10144;50.874;4.762;2024-01-06T11:17:08;4.80;99.90
19966;DHT22;10144;50.874;4.762;2024-01-06T11:24:52;4.70;99.90
19966;DHT22;10144;50.874;4.762;2024-01-06T11:27:42;4.70;99.90
19966;DHT22;10144;50.874;4.762;2024-01-06T11:30:20;4.70;99.90
19966;DHT22;10144;50.874;4.762;2024-01-06T11:32:51;4.80;99.90
19966;DHT22;10144;50.874;4.762;2024-01-06T11:35:29;4.80;99.90
19966;DHT22;10144;50.874;4.762;2024-01-06T11:38:00;5.00;99.90
19966;DHT22;10144;50.874;4.762;2024-01-06T11:40:36;5.10;99.90
19966;DHT22;10144;50.874;4.762;2024-01-06T11:43:11;4.90;99.90
19966;DHT22;10144;50.874;4.762;2024-01-06T11:45:41;5.10;99.90
19966;DHT22;10144;50.874;4.762;2024-01-06T11:48:13;5.00;99.90
19966;DHT22;10144;50.874;4.762;2024-01-06T11:50:43;4.90;99.90
19966;DHT22;10144;50.874;4.762;2024-01-06T11:53:13;4.90;99.90
19966;DHT22;10144;50.874;4.762;2024-01-06T11:55:42;4.80;99.90
19966;DHT22;10144;50.874;4.762;2024-01-06T11:58:16;4.80;99.90
19966;DHT22;10144;50.874;4.762;2024-01-06T12:00:55;4.70;99.90
19966;DHT22;10144;50.874;4.762;2024-01-06T12:03:24;4.80;99.90
19966;DHT22;10144;50.874;4.762;2024-01-06T12:06:04;4.80;99.90
19966;DHT22;10144;50.874;4.762;2024-01-06T12:08:34;4.80;99.90
19966;DHT22;10144;50.874;4.762;2024-01-06T12:11:06;4.80;99.90
19966;DHT22;10144;50.874;4.762;2024-01-06T12:13:33;4.70;99.90
19966;DHT22;10144;50.874;4.762;2024-01-06T12:16:02;4.70;99.90
19966;DHT22;10144;50.874;4.762;2024-01-06T12:18:29;4.60;99.90
19966;DHT22;10144;50.874;4.762;2024-01-06T12:20:57;4.60;99.90
19966;DHT22;10144;50.874;4.762;2024-01-06T12:23:29;4.60;99.90
19966;DHT22;10144;50.874;4.762;2024-01-06T12:25:56;4.60;99.90
19966;DHT22;10144;50.874;4.762;2024-01-06T12:28:22;4.50;99.90
19966;DHT22;10144;50.874;4.762;2024-01-06T12:30:54;4.50;99.90
19966;DHT22;10144;50.874;4.762;2024-01-06T12:33:20;4.50;99.90
19966;DHT22;10144;50.874;4.762;2024-01-06T12:35:46;4.60;99.90
19966;DHT22;10144;50.874;4.762;2024-01-06T12:38:12;4.50;99.90
19966;DHT22;10144;50.874;4.762;2024-01-06T12:40:43;4.50;99.90
19966;DHT22;10144;50.874;4.762;2024-01-06T12:43:14;4.60;99.90
19966;DHT22;10144;50.874;4.762;2024-01-06T12:45:43;4.60;99.90
19966;DHT22;10144;50.874;4.762;2024-01-06T12:48:12;4.70;99.90
19966;DHT22;10144;50.874;4.762;2024-01-06T12:50:41;4.60;99.90
19966;DHT22;10144;50.874;4.762;2024-01-06T12:53:10;4.50;99.90
19966;DHT22;10144;50.874;4.762;2024-01-06T12:55:47;4.40;99.90
19966;DHT22;10144;50.874;4.762;2024-01-06T12:58:18;4.30;99.90
19966;DHT22;10144;50.874;4.762;2024-01-06T13:00:47;4.30;99.90
19966;DHT22;10144;50.874;4.762;2024-01-06T13:03:16;4.40;99.90
19966;DHT22;10144;50.874;4.762;2024-01-06T13:05:42;4.30;99.90
19966;DHT22;10144;50.874;4.762;2024-01-06T13:08:09;4.40;99.90
19966;DHT22;10144;50.874;4.762;2024-01-06T13:10:38;4.30;99.90
19966;DHT22;10144;50.874;4.762;2024-01-06T13:13:07;4.30;99.90
19966;DHT22;10144;50.874;4.762;2024-01-06T13:15:33;4.40;99.90
19966;DHT22;10144;50.874;4.762;2024-01-06T13:18:05;4.40;99.90
19966;DHT22;10144;50.874;4.762;2024-01-06T13:20:33;4.50;99.90
19966;DHT22;10144;50.874;4.762;2024-01-06T13:22:58;4.60;99.90
19966;DHT22;10144;50.874;4.762;2024-01-06T13:25:24;4.50;99.90
19966;DHT22;10144;50.874;4.762;2024-01-06T13:27:56;4.50;99.90
19966;DHT22;10144;50.874;4.762;2024-01-06T13:30:22;4.50;99.90
19966;DHT22;10144;50.874;4.762;2024-01-06T13:32:51;4.50;99.90
19966;DHT22;10144;50.874;4.762;2024-01-06T13:35:21;4.40;99.90
19966;DHT22;10144;50.874;4.762;2024-01-06T13:37:53;4.40;99.90
19966;DHT22;10144;50.874;4.762;2024-01-06T13:40:24;4.40;99.90
19966;DHT22;10144;50.874;4.762;2024-01-06T13:42:51;4.40;99.90
19966;DHT22;10144;50.874;4.762;2024-01-06T13:45:22;4.30;99.90
19966;DHT22;10144;50.874;4.762;2024-01-06T13:47:51;4.30;99.90
19966;DHT22;10144;50.874;4.762;2024-01-06T13:50:19;4.30;99.90
19966;DHT22;10144;50.874;4.762;2024-01-06T13:52:45;4.40;99.90
19966;DHT22;10144;50.874;4.762;2024-01-06T13:55:12;4.30;99.90
19966;DHT22;10144;50.874;4.762;2024-01-06T13:57:40;4.50;99.90
19966;DHT22;10144;50.874;4.762;2024-01-06T14:00:15;4.20;99.90
19966;DHT22;10144;50.874;4.762;2024-01-06T14:02:48;4.20;99.90
19966;DHT22;10144;50.874;4.762;2024-01-06T14:05:14;4.20;99.90
19966;DHT22;10144;50.874;4.762;2024-01-06T14:07:42;4.20;99.90
19966;DHT22;10144;50.874;4.762;2024-01-06T14:10:14;4.20;99.90
19966;DHT22;10144;50.874;4.762;2024-01-06T14:12:44;4.30;99.90
19966;DHT22;10144;50.874;4.762;2024-01-06T14:15:09;4.20;99.90
19966;DHT22;10144;50.874;4.762;2024-01-06T14:17:35;4.30;99.90
19966;DHT22;10144;50.874;4.762;2024-01-06T14:20:04;4.10;99.90
19966;DHT22;10144;50.874;4.762;2024-01-06T14:22:31;4.20;99.90
19966;DHT22;10144;50.874;4.762;2024-01-06T14:25:04;4.30;99.90
19966;DHT22;10144;50.874;4.762;2024-01-06T14:27:32;4.30;99.90
19966;DHT22;10144;50.874;4.762;2024-01-06T14:30:02;4.40;99.90
19966;DHT22;10144;50.874;4.762;2024-01-06T14:32:33;4.40;99.90
19966;DHT22;10144;50.874;4.762;2024-01-06T14:35:05;4.30;99.90
19966;DHT22;10144;50.874;4.762;2024-01-06T14:37:43;4.20;99.90
19966;DHT22;10144;50.874;4.762;2024-01-06T14:40:12;4.20;99.90
19966;DHT22;10144;50.874;4.762;2024-01-06T14:42:38;4.20;99.90
19966;DHT22;10144;50.874;4.762;2024-01-06T14:45:04;4.20;99.90
19966;DHT22;10144;50.874;4.762;2024-01-06T14:47:51;4.20;99.90
19966;DHT22;10144;50.874;4.762;2024-01-06T14:50:20;4.30;99.90
19966;DHT22;10144;50.874;4.762;2024-01-06T14:52:46;4.40;99.90
19966;DHT22;10144;50.874;4.762;2024-01-06T14:55:12;4.30;99.90
19966;DHT22;10144;50.874;4.762;2024-01-06T14:57:38;4.30;99.90
19966;DHT22;10144;50.874;4.762;2024-01-06T15:00:07;4.20;99.90
19966;DHT22;10144;50.874;4.762;2024-01-06T15:02:39;4.20;99.90
19966;DHT22;10144;50.874;4.762;2024-01-06T15:05:07;4.20;99.90
19966;DHT22;10144;50.874;4.762;2024-01-06T15:07:33;4.10;99.90
19966;DHT22;10144;50.874;4.762;2024-01-06T15:10:02;4.00;99.90
19966;DHT22;10144;50.874;4.762;2024-01-06T15:12:32;4.10;99.90
19966;DHT22;10144;50.874;4.762;2024-01-06T15:15:00;4.20;99.90
19966;DHT22;10144;50.874;4.762;2024-01-06T15:17:27;4.10;99.90
19966;DHT22;10144;50.874;4.762;2024-01-06T15:19:53;4.10;99.90
19966;DHT22;10144;50.874;4.762;2024-01-06T15:22:19;4.20;99.90
19966;DHT22;10144;50.874;4.762;2024-01-06T15:24:51;4.20;99.90
19966;DHT22;10144;50.874;4.762;2024-01-06T15:27:21;4.20;99.90
19966;DHT22;10144;50.874;4.762;2024-01-06T15:29:50;4.30;99.90
19966;DHT22;10144;50.874;4.762;2024-01-06T15:32:19;4.20;99.90
19966;DHT22;10144;50.874;4.762;2024-01-06T15:34:51;4.10;99.90
19966;DHT22;10144;50.874;4.762;2024-01-06T15:37:17;4.10;99.90
19966;DHT22;10144;50.874;4.762;2024-01-06T15:39:46;4.10;99.90
19966;DHT22;10144;50.874;4.762;2024-01-06T15:42:15;4.10;99.90
19966;DHT22;10144;50.874;4.762;2024-01-06T15:44:44;4.20;99.90
19966;DHT22;10144;50.874;4.762;2024-01-06T15:47:12;4.20;99.90
19966;DHT22;10144;50.874;4.762;2024-01-06T15:49:41;4.40;99.90
19966;DHT22;10144;50.874;4.762;2024-01-06T15:52:07;4.40;99.90
19966;DHT22;10144;50.874;4.762;2024-01-06T15:54:37;4.20;99.90
19966;DHT22;10144;50.874;4.762;2024-01-06T15:57:08;4.20;99.90
19966;DHT22;10144;50.874;4.762;2024-01-06T15:59:40;4.20;99.90
19966;DHT22;10144;50.874;4.762;2024-01-06T16:02:14;4.20;99.90
19966;DHT22;10144;50.874;4.762;2024-01-06T16:04:43;4.10;99.90